createdAt,value
2023-07-19T00:01:50.219Z,100214.06
2023-07-19T00:04:18.297Z,100200.81
2023-07-19T00:06:46.527Z,100204.47
2023-07-19T00:09:14.899Z,100199.78
2023-07-19T00:11:43.664Z,100202.59
2023-07-19T00:14:11.902Z,100199.16
2023-07-19T00:16:40.178Z,100206.13
2023-07-19T00:19:20.351Z,100214.44
2023-07-19T00:21:50.642Z,100209.25
2023-07-19T00:24:18.886Z,100206.00
2023-07-19T00:26:47.868Z,100210.81
2023-07-19T00:29:16.180Z,100206.34
2023-07-19T00:31:44.974Z,100204.56
2023-07-19T00:34:16.070Z,100196.56
2023-07-19T00:36:44.419Z,100205.31
2023-07-19T00:39:13.233Z,100198.63
2023-07-19T00:41:41.878Z,100205.09
2023-07-19T00:44:10.400Z,100200.31
2023-07-19T00:46:40.131Z,100201.06
2023-07-19T00:49:09.437Z,100204.38
2023-07-19T00:51:39.641Z,100204.91
2023-07-19T00:54:09.861Z,100213.94
2023-07-19T00:56:38.919Z,100218.28
2023-07-19T00:59:07.207Z,100209.41
2023-07-19T01:01:35.650Z,100219.81
2023-07-19T01:04:07.572Z,100217.44
2023-07-19T01:06:35.917Z,100204.94
2023-07-19T01:09:06.238Z,100205.47
2023-07-19T01:11:34.557Z,100210.16
2023-07-19T01:14:02.832Z,100204.09
2023-07-19T01:16:32.433Z,100196.19
2023-07-19T01:19:01.513Z,100196.81
2023-07-19T01:21:30.708Z,100190.97
2023-07-19T01:24:00.434Z,100191.50
2023-07-19T01:26:28.595Z,100202.63
2023-07-19T01:28:59.325Z,100191.75
2023-07-19T01:31:27.702Z,100199.56
2023-07-19T01:33:56.433Z,100195.22
2023-07-19T01:36:27.457Z,100209.53
2023-07-19T01:38:55.986Z,100202.72
2023-07-19T01:41:25.736Z,100198.75
2023-07-19T01:43:55.267Z,100199.06
2023-07-19T01:46:23.627Z,100204.03
2023-07-19T01:48:51.986Z,100199.34
2023-07-19T01:51:20.593Z,100194.75
2023-07-19T01:53:48.973Z,100188.88
2023-07-19T01:56:17.681Z,100183.78
2023-07-19T01:58:47.310Z,100182.31
2023-07-19T02:01:17.526Z,100177.41
2023-07-19T02:03:45.855Z,100175.72
2023-07-19T02:06:14.973Z,100166.06
2023-07-19T02:08:43.340Z,100168.38
2023-07-19T02:11:11.833Z,100168.66
2023-07-19T02:13:40.108Z,100166.34
2023-07-19T02:16:10.585Z,100158.16
2023-07-19T02:18:39.382Z,100154.16
2023-07-19T02:21:07.673Z,100154.44
2023-07-19T02:23:35.917Z,100149.81
2023-07-19T02:26:04.228Z,100157.28
2023-07-19T02:28:32.532Z,100153.13
2023-07-19T02:31:01.021Z,100144.28
2023-07-19T02:33:33.280Z,100142.66
2023-07-19T02:36:01.717Z,100146.69
2023-07-19T02:38:30.099Z,100152.03
2023-07-19T02:41:02.118Z,100154.63
2023-07-19T02:43:31.278Z,100159.28
2023-07-19T02:45:59.455Z,100162.47
2023-07-19T02:48:27.716Z,100165.63
2023-07-19T02:50:58.513Z,100162.34
2023-07-19T02:53:26.973Z,100173.09
2023-07-19T02:55:55.211Z,100166.50
2023-07-19T02:58:23.766Z,100164.41
2023-07-19T03:00:55.066Z,100178.16
2023-07-19T03:03:24.055Z,100170.28
2023-07-19T03:05:53.547Z,100179.16
2023-07-19T03:08:23.241Z,100178.78
2023-07-19T03:10:53.906Z,100177.94
2023-07-19T03:13:22.287Z,100185.50
2023-07-19T03:15:51.058Z,100192.31
2023-07-19T03:18:19.338Z,100192.56
2023-07-19T03:20:47.573Z,100190.59
2023-07-19T03:23:15.736Z,100198.03
2023-07-19T03:25:45.950Z,100204.84
2023-07-19T03:28:14.222Z,100207.53
2023-07-19T03:30:42.917Z,100206.69
2023-07-19T03:33:11.626Z,100220.44
2023-07-19T03:35:40.119Z,100213.38
2023-07-19T03:38:08.358Z,100218.97
2023-07-19T03:40:36.859Z,100218.13
2023-07-19T03:43:06.576Z,100228.22
2023-07-19T03:45:34.832Z,100226.50
2023-07-19T03:48:03.206Z,100222.72
2023-07-19T03:50:34.082Z,100213.59
2023-07-19T03:53:05.876Z,100217.88
2023-07-19T03:55:34.791Z,100222.47
2023-07-19T03:58:06.517Z,100228.81
2023-07-19T04:00:34.718Z,100219.19
2023-07-19T04:03:03.050Z,100235.53
2023-07-19T04:05:31.558Z,100235.53
2023-07-19T04:08:02.413Z,100237.00
2023-07-19T04:10:32.445Z,100236.28
2023-07-19T04:13:00.741Z,100234.78
2023-07-19T04:15:30.356Z,100229.44
2023-07-19T04:17:59.651Z,100236.50
2023-07-19T04:20:28.891Z,100234.56
2023-07-19T04:22:57.330Z,100229.94
2023-07-19T04:25:26.531Z,100239.69
2023-07-19T04:27:55.669Z,100223.47
2023-07-19T04:30:24.291Z,100233.34
2023-07-19T04:32:56.577Z,100229.47
2023-07-19T04:35:24.947Z,100240.53
2023-07-19T04:37:54.884Z,100251.78
2023-07-19T04:40:23.608Z,100253.13
2023-07-19T04:42:51.974Z,100252.63
2023-07-19T04:45:20.203Z,100256.59
2023-07-19T04:47:49.583Z,100263.16
2023-07-19T04:50:19.623Z,100267.63
2023-07-19T04:52:47.957Z,100271.88
2023-07-19T04:55:16.217Z,100271.75
2023-07-19T04:57:45.984Z,100275.59
2023-07-19T05:00:19.305Z,100274.59
2023-07-19T05:02:48.080Z,100268.59
2023-07-19T05:05:16.590Z,100280.16
2023-07-19T05:07:47.860Z,100280.59
2023-07-19T05:10:18.075Z,100272.22
2023-07-19T05:12:46.414Z,100283.84
2023-07-19T05:15:15.162Z,100285.72
2023-07-19T05:17:43.544Z,100277.34
2023-07-19T05:20:13.440Z,100283.59
2023-07-19T05:22:41.644Z,100291.34
2023-07-19T05:25:11.585Z,100287.25
2023-07-19T05:27:40.317Z,100283.19
2023-07-19T05:30:12.021Z,100286.84
2023-07-19T05:32:40.185Z,100272.88
2023-07-19T05:35:09.054Z,100275.06
2023-07-19T05:37:37.230Z,100279.84
2023-07-19T05:40:07.054Z,100283.00
2023-07-19T05:42:36.774Z,100286.94
2023-07-19T05:45:06.503Z,100288.09
2023-07-19T05:47:35.080Z,100279.44
2023-07-19T05:50:04.352Z,100287.09
2023-07-19T05:52:32.922Z,100284.09
2023-07-19T05:55:04.682Z,100288.88
2023-07-19T05:57:36.140Z,100288.63
2023-07-19T06:00:19.443Z,100290.19
2023-07-19T06:02:54.902Z,100289.66
2023-07-19T06:05:25.866Z,100284.69
2023-07-19T06:07:54.680Z,100288.25
2023-07-19T06:10:23.538Z,100280.31
2023-07-19T06:12:53.560Z,100281.44
2023-07-19T06:15:21.863Z,100291.28
2023-07-19T06:17:50.132Z,100292.28
2023-07-19T06:20:18.504Z,100285.34
2023-07-19T06:22:47.116Z,100293.16
2023-07-19T06:25:16.555Z,100296.44
2023-07-19T06:27:44.922Z,100294.53
2023-07-19T06:30:15.190Z,100292.66
2023-07-19T06:32:43.525Z,100296.94
2023-07-19T06:35:12.260Z,100293.72
2023-07-19T06:37:40.473Z,100277.44
2023-07-19T06:40:09.734Z,100285.28
2023-07-19T06:42:38.133Z,100289.91
2023-07-19T06:45:07.542Z,100283.72
2023-07-19T06:47:37.227Z,100285.91
2023-07-19T06:50:06.314Z,100290.03
2023-07-19T06:52:35.100Z,100293.00
2023-07-19T06:55:03.294Z,100292.72
2023-07-19T06:57:31.860Z,100290.50
2023-07-19T07:00:04.452Z,100295.66
2023-07-19T07:02:32.912Z,100295.81
2023-07-19T07:05:02.757Z,100296.84
2023-07-19T07:07:31.106Z,100303.47
2023-07-19T07:10:04.760Z,100299.72
2023-07-19T07:12:33.293Z,100303.16
2023-07-19T07:15:02.748Z,100302.63
2023-07-19T07:17:30.820Z,100305.06
2023-07-19T07:20:00.241Z,100297.03
2023-07-19T07:22:30.454Z,100302.81
2023-07-19T07:24:58.935Z,100303.63
2023-07-19T07:27:28.271Z,100287.38
2023-07-19T07:29:56.350Z,100294.91
2023-07-19T07:32:24.575Z,100297.13
2023-07-19T07:34:52.847Z,100294.53
2023-07-19T07:37:21.105Z,100282.41
2023-07-19T07:39:50.761Z,100284.38
2023-07-19T07:42:19.054Z,100290.38
2023-07-19T07:44:48.633Z,100291.00
2023-07-19T07:47:17.071Z,100282.66
2023-07-19T07:49:47.739Z,100284.63
2023-07-19T07:52:17.479Z,100285.09
2023-07-19T07:54:45.889Z,100278.25
2023-07-19T07:57:15.982Z,100273.88
2023-07-19T07:59:44.443Z,100278.88
2023-07-19T08:02:12.868Z,100266.97
2023-07-19T08:04:41.497Z,100260.41
2023-07-19T08:07:09.677Z,100254.34
2023-07-19T08:09:37.950Z,100262.00
2023-07-19T08:12:07.699Z,100262.44
2023-07-19T08:14:37.841Z,100267.75
2023-07-19T08:17:06.464Z,100259.56
2023-07-19T08:19:35.738Z,100245.16
2023-07-19T08:22:05.893Z,100242.59
2023-07-19T08:24:35.217Z,100243.59
2023-07-19T08:27:03.945Z,100238.69
2023-07-19T08:29:32.155Z,100238.63
2023-07-19T08:32:02.065Z,100238.38
2023-07-19T08:34:30.513Z,100236.63
2023-07-19T08:36:58.933Z,100231.00
2023-07-19T08:39:28.359Z,100231.06
2023-07-19T08:41:56.585Z,100224.94
2023-07-19T08:44:24.954Z,100225.00
2023-07-19T08:46:54.191Z,100220.69
2023-07-19T08:49:24.712Z,100222.03
2023-07-19T08:51:53.095Z,100215.22
2023-07-19T08:54:21.562Z,100222.47
2023-07-19T08:56:50.085Z,100213.50
2023-07-19T08:59:18.318Z,100208.91
2023-07-19T09:01:46.982Z,100207.69
2023-07-19T09:04:15.672Z,100209.22
2023-07-19T09:06:48.019Z,100204.97
2023-07-19T09:09:18.952Z,100203.50
2023-07-19T09:11:48.348Z,100204.09
2023-07-19T09:14:16.635Z,100203.47
2023-07-19T09:16:47.548Z,100206.34
2023-07-19T09:19:15.748Z,100202.03
2023-07-19T09:21:46.260Z,100209.00
2023-07-19T09:24:15.752Z,100194.88
2023-07-19T09:26:50.814Z,100191.25
2023-07-19T09:29:19.574Z,100201.34
2023-07-19T09:31:55.565Z,100206.28
2023-07-19T09:34:24.891Z,100196.34
2023-07-19T09:36:57.353Z,100186.25
2023-07-19T09:39:26.024Z,100187.72
2023-07-19T09:41:55.493Z,100184.00
2023-07-19T09:44:24.034Z,100193.66
2023-07-19T09:46:52.320Z,100183.72
2023-07-19T09:49:20.868Z,100185.53
2023-07-19T09:51:50.099Z,100176.28
2023-07-19T09:54:19.641Z,100174.66
2023-07-19T09:56:47.988Z,100171.31
2023-07-19T09:59:22.384Z,100167.22
2023-07-19T10:01:52.307Z,100163.28
2023-07-19T10:04:25.329Z,100161.03
2023-07-19T10:07:04.889Z,100156.31
2023-07-19T10:09:40.506Z,100152.25
2023-07-19T10:12:11.370Z,100139.19
2023-07-19T10:14:39.592Z,100139.53
2023-07-19T10:17:08.695Z,100138.94
2023-07-19T10:19:37.665Z,100132.34
2023-07-19T10:22:07.171Z,100131.88
2023-07-19T10:24:38.526Z,100132.19
2023-07-19T10:27:08.952Z,100124.72
2023-07-19T10:29:45.457Z,100134.13
2023-07-19T10:32:13.928Z,100126.19
2023-07-19T10:34:45.898Z,100119.56
2023-07-19T10:37:14.729Z,100120.41
2023-07-19T10:39:44.351Z,100108.16
2023-07-19T10:42:12.769Z,100113.16
2023-07-19T10:44:41.836Z,100116.63
2023-07-19T10:47:09.993Z,100114.34
2023-07-19T10:49:38.623Z,100106.50
2023-07-19T10:52:07.673Z,100098.88
2023-07-19T10:54:46.140Z,100096.06
2023-07-19T10:57:24.097Z,100092.41
2023-07-19T10:59:52.812Z,100100.38
2023-07-19T11:02:21.260Z,100090.34
2023-07-19T11:04:50.757Z,100083.88
2023-07-19T11:07:19.607Z,100078.00
2023-07-19T11:09:51.205Z,100079.09
2023-07-19T11:12:21.032Z,100074.22
2023-07-19T11:14:59.388Z,100085.66
2023-07-19T11:17:28.873Z,100069.69
2023-07-19T11:19:57.315Z,100079.59
2023-07-19T11:22:27.277Z,100075.75
2023-07-19T11:24:57.830Z,100073.00
2023-07-19T11:27:37.858Z,100063.13
2023-07-19T11:30:07.923Z,100054.53
2023-07-19T11:32:36.467Z,100048.81
2023-07-19T11:35:04.957Z,100055.91
2023-07-19T11:37:35.141Z,100048.66
2023-07-19T11:40:06.713Z,100045.59
2023-07-19T11:42:46.864Z,100044.16
2023-07-19T11:45:17.140Z,100032.19
2023-07-19T11:47:46.741Z,100031.50
2023-07-19T11:50:15.633Z,100022.59
2023-07-19T11:52:49.661Z,100032.84
2023-07-19T11:55:18.720Z,100026.59
2023-07-19T11:57:54.234Z,100024.47
2023-07-19T12:00:24.637Z,100032.34
2023-07-19T12:02:54.003Z,100038.78
2023-07-19T12:05:23.566Z,100040.88
2023-07-19T12:07:52.970Z,100034.41
2023-07-19T12:10:23.157Z,100019.47
2023-07-19T12:12:54.330Z,100015.88
2023-07-19T12:15:22.688Z,100030.88
2023-07-19T12:17:52.173Z,100015.91
2023-07-19T12:20:20.506Z,100006.59
2023-07-19T12:22:50.395Z,100008.03
2023-07-19T12:25:19.731Z,100008.53
2023-07-19T12:27:53.447Z,100008.47
2023-07-19T12:30:23.528Z,100007.28
2023-07-19T12:32:52.068Z,99999.38
2023-07-19T12:35:21.745Z,100008.03
2023-07-19T12:37:49.984Z,99998.09
2023-07-19T12:40:18.422Z,100005.28
2023-07-19T12:42:46.632Z,100006.81
2023-07-19T12:45:15.461Z,100013.66
2023-07-19T12:47:45.465Z,99999.25
2023-07-19T12:50:13.908Z,100005.31
2023-07-19T12:52:52.362Z,100000.22
2023-07-19T12:55:21.129Z,100000.31
2023-07-19T12:57:49.669Z,99995.78
2023-07-19T13:00:19.679Z,99981.31
2023-07-19T13:02:50.119Z,99973.66
2023-07-19T13:05:19.103Z,99967.75
2023-07-19T13:07:47.385Z,99974.97
2023-07-19T13:10:15.872Z,99973.91
2023-07-19T13:12:45.527Z,99982.38
2023-07-19T13:15:14.119Z,99980.94
2023-07-19T13:17:43.612Z,99971.91
2023-07-19T13:20:14.015Z,99974.50
2023-07-19T13:22:47.748Z,99971.81
2023-07-19T13:25:16.626Z,99961.16
2023-07-19T13:27:44.853Z,99950.22
2023-07-19T13:30:14.165Z,99946.41
2023-07-19T13:32:43.074Z,99947.63
2023-07-19T13:35:15.051Z,99962.19
2023-07-19T13:40:33.730Z,99997.56
2023-07-19T13:43:02.071Z,100007.25
2023-07-19T13:45:30.361Z,99994.44
2023-07-19T13:47:58.586Z,100000.06
2023-07-19T13:50:26.843Z,99997.63
2023-07-19T13:52:55.292Z,99991.78
2023-07-19T13:55:24.887Z,99990.22
2023-07-19T13:57:53.217Z,99975.28
2023-07-19T14:00:21.570Z,99971.41
2023-07-19T14:02:49.892Z,99978.28
2023-07-19T14:05:18.289Z,99991.84
2023-07-19T14:07:46.597Z,99979.53
2023-07-19T14:10:14.995Z,99984.38
2023-07-19T14:12:45.037Z,99981.69
2023-07-19T14:15:13.617Z,99984.91
2023-07-19T14:17:42.441Z,99973.00
2023-07-19T14:20:12.223Z,99967.66
2023-07-19T14:22:40.833Z,99961.38
2023-07-19T14:25:09.730Z,99965.47
2023-07-19T14:27:39.274Z,99969.22
2023-07-19T14:30:11.003Z,99970.97
2023-07-19T14:32:39.344Z,99980.50
2023-07-19T14:35:08.579Z,99977.94
2023-07-19T14:37:37.204Z,99974.34
2023-07-19T14:40:08.216Z,99975.56
2023-07-19T14:42:36.463Z,99977.34
2023-07-19T14:45:05.268Z,99971.81
2023-07-19T14:47:36.707Z,99974.63
2023-07-19T14:50:05.817Z,99975.22
2023-07-19T14:52:42.721Z,99968.97
2023-07-19T14:55:11.300Z,99959.38
2023-07-19T14:57:39.605Z,99969.38
2023-07-19T15:00:13.852Z,99960.97
2023-07-19T15:05:27.139Z,99977.13
2023-07-19T15:07:55.999Z,99984.94
2023-07-19T15:10:25.429Z,99968.66
2023-07-19T15:12:55.074Z,99967.63
2023-07-19T15:15:23.641Z,99974.09
2023-07-19T15:17:55.305Z,99972.75
2023-07-19T15:20:23.758Z,99976.06
2023-07-19T15:22:55.135Z,99976.72
2023-07-19T15:25:24.369Z,99979.72
2023-07-19T15:27:52.732Z,99978.03
2023-07-19T15:30:21.277Z,99971.22
2023-07-19T15:32:49.925Z,99975.69
2023-07-19T15:35:19.767Z,99971.50
2023-07-19T15:37:48.449Z,99975.00
2023-07-19T15:40:17.248Z,99977.69
2023-07-19T15:42:45.771Z,99980.53
2023-07-19T15:45:17.027Z,99981.44
2023-07-19T15:47:45.624Z,99977.09
2023-07-19T15:50:16.505Z,99981.31
2023-07-19T15:52:47.465Z,99980.00
2023-07-19T15:55:16.877Z,99979.88
2023-07-19T15:57:45.234Z,99982.25
2023-07-19T16:00:15.200Z,99978.25
2023-07-19T16:02:43.505Z,99989.34
2023-07-19T16:05:11.814Z,99985.56
2023-07-19T16:07:40.050Z,99997.09
2023-07-19T16:10:10.346Z,99991.84
2023-07-19T16:12:39.638Z,99994.41
2023-07-19T16:15:08.498Z,100000.41
2023-07-19T16:17:36.968Z,99996.19
2023-07-19T16:20:07.636Z,99995.84
2023-07-19T16:22:36.477Z,99993.72
2023-07-19T16:25:05.536Z,99998.31
2023-07-19T16:27:35.092Z,99995.06
2023-07-19T16:30:03.890Z,99993.31
2023-07-19T16:32:32.472Z,99997.66
2023-07-19T16:35:00.866Z,100003.44
2023-07-19T16:37:29.113Z,100005.63
2023-07-19T16:39:57.651Z,100015.44
2023-07-19T16:42:25.952Z,100019.28
2023-07-19T16:44:55.576Z,100027.13
2023-07-19T16:47:23.866Z,100021.38
2023-07-19T16:49:53.486Z,100020.00
2023-07-19T16:52:22.130Z,100022.56
2023-07-19T16:54:50.748Z,100033.06
2023-07-19T16:57:19.021Z,100022.41
2023-07-19T16:59:49.187Z,100031.09
2023-07-19T17:02:21.921Z,100031.91
2023-07-19T17:04:51.494Z,100033.41
2023-07-19T17:07:20.056Z,100036.34
2023-07-19T17:09:48.251Z,100031.72
2023-07-19T17:12:16.762Z,100038.31
2023-07-19T17:14:45.976Z,100033.19
2023-07-19T17:17:14.446Z,100028.91
2023-07-19T17:19:44.193Z,100033.81
2023-07-19T17:22:12.642Z,100035.09
2023-07-19T17:24:41.396Z,100039.53
2023-07-19T17:27:09.707Z,100039.84
2023-07-19T17:29:38.202Z,100036.28
2023-07-19T17:32:07.633Z,100039.75
2023-07-19T17:34:35.123Z,100043.59
2023-07-19T17:37:04.666Z,100048.91
2023-07-19T17:39:32.964Z,100048.59
2023-07-19T17:42:01.521Z,100053.34
2023-07-19T17:44:29.752Z,100057.94
2023-07-19T17:46:58.093Z,100067.72
2023-07-19T17:49:26.443Z,100064.13
2023-07-19T17:52:06.219Z,100060.97
2023-07-19T17:54:36.052Z,100070.56
2023-07-19T17:57:09.275Z,100074.38
2023-07-19T17:59:42.882Z,100078.50
2023-07-19T18:02:14.532Z,100077.16
2023-07-19T18:04:49.025Z,100085.63
2023-07-19T18:07:24.377Z,100086.75
2023-07-19T18:09:53.941Z,100086.91
2023-07-19T18:12:22.669Z,100086.50
2023-07-19T18:14:53.904Z,100075.28
2023-07-19T18:17:22.439Z,100086.94
2023-07-19T18:19:50.801Z,100083.75
2023-07-19T18:22:23.969Z,100090.97
2023-07-19T18:25:00.244Z,100093.16
2023-07-19T18:27:39.487Z,100095.59
2023-07-19T18:30:09.505Z,100106.59
2023-07-19T18:32:37.764Z,100097.97
2023-07-19T18:35:07.614Z,100101.72
2023-07-19T18:37:51.048Z,100093.38
2023-07-19T18:40:22.922Z,100101.53
2023-07-19T18:42:57.313Z,100098.31
2023-07-19T18:45:30.480Z,100105.13
2023-07-19T18:48:09.150Z,100109.13
2023-07-19T18:50:40.751Z,100107.59
2023-07-19T18:53:11.730Z,100109.72
2023-07-19T18:55:49.832Z,100113.41
2023-07-19T18:58:22.404Z,100116.41
2023-07-19T19:00:58.711Z,100125.41
2023-07-19T19:03:31.365Z,100112.41
2023-07-19T19:06:00.238Z,100124.19
2023-07-19T19:08:35.198Z,100126.13
2023-07-19T19:11:04.995Z,100137.53
2023-07-19T19:13:36.139Z,100134.66
2023-07-19T19:16:07.811Z,100136.38
2023-07-19T19:18:38.203Z,100143.16
2023-07-19T19:21:10.414Z,100148.66
2023-07-19T19:23:42.170Z,100151.22
2023-07-19T19:26:15.847Z,100142.91
2023-07-19T19:28:45.668Z,100152.13
2023-07-19T19:31:24.850Z,100158.28
2023-07-19T19:33:53.409Z,100162.63
2023-07-19T19:36:24.390Z,100168.00
2023-07-19T19:38:55.924Z,100167.72
2023-07-19T19:41:28.998Z,100172.31
2023-07-19T19:43:58.778Z,100168.78
2023-07-19T19:46:31.923Z,100171.16
2023-07-19T19:49:02.874Z,100166.69
2023-07-19T19:51:35.810Z,100169.72
2023-07-19T19:54:11.317Z,100176.19
2023-07-19T19:56:51.497Z,100180.31
2023-07-19T19:59:22.208Z,100183.72
2023-07-19T20:01:51.880Z,100191.88
2023-07-19T20:04:44.649Z,100190.41
2023-07-19T20:07:15.894Z,100189.69
2023-07-19T20:09:59.550Z,100190.31
2023-07-19T20:12:30.639Z,100193.56
2023-07-19T20:14:58.717Z,100203.16
2023-07-19T20:17:36.791Z,100205.16
2023-07-19T20:20:09.285Z,100206.41
2023-07-19T20:22:50.501Z,100209.22
2023-07-19T20:25:29.701Z,100205.75
2023-07-19T20:28:21.168Z,100216.41
2023-07-19T20:31:05.867Z,100212.19
2023-07-19T20:33:43.083Z,100224.97
2023-07-19T20:36:45.538Z,100218.66
2023-07-19T20:39:50.422Z,100228.72
2023-07-19T20:41:53.368Z,100233.47
2023-07-19T20:44:28.555Z,100227.03
2023-07-19T20:46:57.220Z,100231.16
2023-07-19T20:49:27.110Z,100236.72
2023-07-19T20:51:55.896Z,100226.31
2023-07-19T20:54:24.175Z,100237.38
2023-07-19T20:56:52.390Z,100239.47
2023-07-19T20:59:22.041Z,100234.47
2023-07-19T21:01:50.389Z,100233.34
2023-07-19T21:04:20.396Z,100238.91
2023-07-19T21:06:48.820Z,100230.44
2023-07-19T21:09:17.175Z,100231.88
2023-07-19T21:11:45.833Z,100238.91
2023-07-19T21:14:14.032Z,100233.25
2023-07-19T21:16:43.644Z,100243.25
2023-07-19T21:19:11.672Z,100240.16
2023-07-19T21:21:39.811Z,100236.94
2023-07-19T21:24:13.794Z,100243.88
2023-07-19T21:26:51.066Z,100251.06
2023-07-19T21:29:22.913Z,100248.78
2023-07-19T21:31:57.527Z,100251.19
2023-07-19T21:34:25.869Z,100246.31
2023-07-19T21:36:59.371Z,100248.31
2023-07-19T21:39:35.006Z,100252.22
2023-07-19T21:42:04.358Z,100246.06
2023-07-19T21:44:35.182Z,100247.97
2023-07-19T21:47:06.264Z,100247.25
2023-07-19T21:49:37.630Z,100249.94
2023-07-19T21:52:22.921Z,100253.75
2023-07-19T21:54:51.135Z,100249.66
2023-07-19T21:57:32.253Z,100259.06
2023-07-19T22:00:00.722Z,100262.94
2023-07-19T22:02:34.230Z,100264.13
2023-07-19T22:05:06.380Z,100269.44
2023-07-19T22:07:38.918Z,100276.72
2023-07-19T22:10:13.251Z,100274.22
2023-07-19T22:12:41.786Z,100279.84
2023-07-19T22:15:16.372Z,100277.56
2023-07-19T22:17:48.090Z,100275.28
2023-07-19T22:20:19.670Z,100275.75
2023-07-19T22:22:48.367Z,100277.97
2023-07-19T22:25:25.205Z,100285.84
2023-07-19T22:28:00.758Z,100279.69
2023-07-19T22:30:34.602Z,100275.88
2023-07-19T22:33:09.032Z,100279.13
2023-07-19T22:35:41.984Z,100284.50
2023-07-19T22:38:11.577Z,100280.69
2023-07-19T22:40:45.331Z,100279.13
2023-07-19T22:43:15.553Z,100284.03
2023-07-19T22:45:45.992Z,100291.50
2023-07-19T22:48:18.322Z,100285.34
2023-07-19T22:50:54.277Z,100288.97
2023-07-19T22:53:35.609Z,100283.53
2023-07-19T22:56:07.371Z,100296.25
2023-07-19T22:58:40.085Z,100300.03
2023-07-19T23:01:11.255Z,100300.25
2023-07-19T23:03:40.816Z,100299.59
2023-07-19T23:06:09.075Z,100300.34
2023-07-19T23:08:38.594Z,100300.34
2023-07-19T23:11:21.187Z,100301.69
2023-07-19T23:13:53.311Z,100312.22
2023-07-19T23:16:24.495Z,100311.09
2023-07-19T23:19:01.814Z,100305.47
2023-07-19T23:21:30.286Z,100312.38
2023-07-19T23:23:58.485Z,100314.69
2023-07-19T23:26:29.588Z,100321.78
2023-07-19T23:29:02.770Z,100315.75
2023-07-19T23:31:33.915Z,100315.56
2023-07-19T23:34:03.666Z,100316.19
2023-07-19T23:36:38.627Z,100327.56
2023-07-19T23:39:06.909Z,100323.69
2023-07-19T23:41:35.079Z,100321.19
2023-07-19T23:44:04.954Z,100320.06
2023-07-19T23:46:34.424Z,100321.94
2023-07-19T23:49:03.929Z,100322.34
2023-07-19T23:51:33.099Z,100322.13
2023-07-19T23:54:02.000Z,100322.03
2023-07-19T23:56:30.263Z,100325.16
2023-07-19T23:58:58.473Z,100327.97
